sensor_id;sensor_type;location;lat;lon;timestamp;temperature;humidity
44723;DHT22;30451;48.638;10.624;2022-12-18T00:02:15;22.90;45.60
44723;DHT22;30451;48.638;10.624;2022-12-18T00:04:41;22.90;45.60
44723;DHT22;30451;48.638;10.624;2022-12-18T00:07:06;22.80;45.60
44723;DHT22;30451;48.638;10.624;2022-12-18T00:09:32;22.80;45.60
44723;DHT22;30451;48.638;10.624;2022-12-18T00:11:58;22.70;45.80
44723;DHT22;30451;48.638;10.624;2022-12-18T00:14:23;22.70;45.70
44723;DHT22;30451;48.638;10.624;2022-12-18T00:16:49;22.70;45.70
44723;DHT22;30451;48.638;10.624;2022-12-18T00:19:16;22.70;45.80
44723;DHT22;30451;48.638;10.624;2022-12-18T00:21:43;22.60;45.80
44723;DHT22;30451;48.638;10.624;2022-12-18T00:24:10;22.60;45.80
44723;DHT22;30451;48.638;10.624;2022-12-18T00:26:37;22.60;45.80
44723;DHT22;30451;48.638;10.624;2022-12-18T00:29:06;22.60;45.90
44723;DHT22;30451;48.638;10.624;2022-12-18T00:31:32;22.50;45.90
44723;DHT22;30451;48.638;10.624;2022-12-18T00:33:58;22.50;45.80
44723;DHT22;30451;48.638;10.624;2022-12-18T00:36:26;22.50;45.90
44723;DHT22;30451;48.638;10.624;2022-12-18T00:38:57;22.40;45.90
44723;DHT22;30451;48.638;10.624;2022-12-18T00:41:24;22.40;46.00
44723;DHT22;30451;48.638;10.624;2022-12-18T00:44:11;22.30;46.00
44723;DHT22;30451;48.638;10.624;2022-12-18T00:46:37;22.30;46.00
44723;DHT22;30451;48.638;10.624;2022-12-18T00:49:03;22.20;46.60
44723;DHT22;30451;48.638;10.624;2022-12-18T00:51:28;22.20;46.10
44723;DHT22;30451;48.638;10.624;2022-12-18T00:53:54;22.20;46.10
44723;DHT22;30451;48.638;10.624;2022-12-18T00:56:20;22.10;46.10
44723;DHT22;30451;48.638;10.624;2022-12-18T00:58:45;22.10;46.10
44723;DHT22;30451;48.638;10.624;2022-12-18T01:01:11;22.00;46.20
44723;DHT22;30451;48.638;10.624;2022-12-18T01:03:36;22.00;46.30
44723;DHT22;30451;48.638;10.624;2022-12-18T01:06:11;21.90;46.30
44723;DHT22;30451;48.638;10.624;2022-12-18T01:08:37;21.90;46.30
44723;DHT22;30451;48.638;10.624;2022-12-18T01:11:12;21.80;46.30
44723;DHT22;30451;48.638;10.624;2022-12-18T01:13:38;21.80;46.40
44723;DHT22;30451;48.638;10.624;2022-12-18T01:16:04;21.80;46.40
44723;DHT22;30451;48.638;10.624;2022-12-18T01:18:30;21.70;46.50
44723;DHT22;30451;48.638;10.624;2022-12-18T01:20:56;21.70;46.60
44723;DHT22;30451;48.638;10.624;2022-12-18T01:23:22;21.60;46.60
44723;DHT22;30451;48.638;10.624;2022-12-18T01:25:47;21.60;46.70
44723;DHT22;30451;48.638;10.624;2022-12-18T01:28:13;21.60;46.60
44723;DHT22;30451;48.638;10.624;2022-12-18T01:30:38;21.50;46.60
44723;DHT22;30451;48.638;10.624;2022-12-18T01:33:05;21.50;46.70
44723;DHT22;30451;48.638;10.624;2022-12-18T01:35:31;21.50;47.20
44723;DHT22;30451;48.638;10.624;2022-12-18T01:37:57;21.40;46.70
44723;DHT22;30451;48.638;10.624;2022-12-18T01:40:23;21.40;46.70
44723;DHT22;30451;48.638;10.624;2022-12-18T01:42:52;21.40;46.80
44723;DHT22;30451;48.638;10.624;2022-12-18T01:45:24;21.30;46.80
44723;DHT22;30451;48.638;10.624;2022-12-18T01:48:01;21.30;46.90
44723;DHT22;30451;48.638;10.624;2022-12-18T01:50:40;21.30;47.00
44723;DHT22;30451;48.638;10.624;2022-12-18T01:53:11;21.20;46.90
44723;DHT22;30451;48.638;10.624;2022-12-18T01:55:42;21.20;46.90
44723;DHT22;30451;48.638;10.624;2022-12-18T01:58:09;21.20;47.00
44723;DHT22;30451;48.638;10.624;2022-12-18T02:00:35;21.20;47.10
44723;DHT22;30451;48.638;10.624;2022-12-18T02:03:00;21.10;47.00
44723;DHT22;30451;48.638;10.624;2022-12-18T02:05:47;21.10;47.10
44723;DHT22;30451;48.638;10.624;2022-12-18T02:08:22;21.10;47.10
44723;DHT22;30451;48.638;10.624;2022-12-18T02:10:57;21.00;47.10
44723;DHT22;30451;48.638;10.624;2022-12-18T02:13:46;21.00;47.20
44723;DHT22;30451;48.638;10.624;2022-12-18T02:16:33;21.00;47.30
44723;DHT22;30451;48.638;10.624;2022-12-18T02:19:09;21.00;47.20
44723;DHT22;30451;48.638;10.624;2022-12-18T02:21:49;20.90;47.20
44723;DHT22;30451;48.638;10.624;2022-12-18T02:24:33;20.90;47.30
44723;DHT22;30451;48.638;10.624;2022-12-18T02:27:05;20.90;47.30
44723;DHT22;30451;48.638;10.624;2022-12-18T02:29:39;20.90;47.30
44723;DHT22;30451;48.638;10.624;2022-12-18T02:32:10;20.80;47.30
44723;DHT22;30451;48.638;10.624;2022-12-18T02:34:39;20.80;47.40
44723;DHT22;30451;48.638;10.624;2022-12-18T02:37:09;20.80;47.40
44723;DHT22;30451;48.638;10.624;2022-12-18T02:39:38;20.80;47.50
44723;DHT22;30451;48.638;10.624;2022-12-18T02:42:04;20.70;47.40
44723;DHT22;30451;48.638;10.624;2022-12-18T02:44:43;20.70;47.50
44723;DHT22;30451;48.638;10.624;2022-12-18T02:47:14;20.70;47.50
44723;DHT22;30451;48.638;10.624;2022-12-18T03:06:48;20.50;47.70
44723;DHT22;30451;48.638;10.624;2022-12-18T03:09:19;20.50;47.70
44723;DHT22;30451;48.638;10.624;2022-12-18T03:11:59;20.50;47.80
44723;DHT22;30451;48.638;10.624;2022-12-18T03:14:45;20.50;47.80
44723;DHT22;30451;48.638;10.624;2022-12-18T03:17:15;20.40;47.80
44723;DHT22;30451;48.638;10.624;2022-12-18T03:19:43;20.40;47.80
44723;DHT22;30451;48.638;10.624;2022-12-18T03:22:12;20.40;47.90
44723;DHT22;30451;48.638;10.624;2022-12-18T03:24:38;20.40;47.90
44723;DHT22;30451;48.638;10.624;2022-12-18T03:27:10;20.40;47.90
44723;DHT22;30451;48.638;10.624;2022-12-18T03:29:47;20.30;47.80
44723;DHT22;30451;48.638;10.624;2022-12-18T03:32:25;20.40;47.90
44723;DHT22;30451;48.638;10.624;2022-12-18T03:34:53;20.30;47.90
44723;DHT22;30451;48.638;10.624;2022-12-18T03:37:20;20.30;48.00
44723;DHT22;30451;48.638;10.624;2022-12-18T03:39:45;20.30;48.00
44723;DHT22;30451;48.638;10.624;2022-12-18T03:42:29;20.30;48.10
44723;DHT22;30451;48.638;10.624;2022-12-18T03:55:53;20.20;48.10
44723;DHT22;30451;48.638;10.624;2022-12-18T03:58:24;20.20;48.20
44723;DHT22;30451;48.638;10.624;2022-12-18T04:00:52;20.10;48.30
44723;DHT22;30451;48.638;10.624;2022-12-18T04:03:20;20.10;48.30
44723;DHT22;30451;48.638;10.624;2022-12-18T04:05:47;20.10;48.30
44723;DHT22;30451;48.638;10.624;2022-12-18T04:08:15;20.10;48.40
44723;DHT22;30451;48.638;10.624;2022-12-18T04:10:41;20.10;48.30
44723;DHT22;30451;48.638;10.624;2022-12-18T04:13:06;20.10;48.40
44723;DHT22;30451;48.638;10.624;2022-12-18T04:15:34;20.10;48.50
44723;DHT22;30451;48.638;10.624;2022-12-18T04:18:00;20.00;48.50
44723;DHT22;30451;48.638;10.624;2022-12-18T04:20:26;20.00;48.50
44723;DHT22;30451;48.638;10.624;2022-12-18T04:22:51;20.00;48.60
44723;DHT22;30451;48.638;10.624;2022-12-18T04:25:17;20.00;48.60
44723;DHT22;30451;48.638;10.624;2022-12-18T04:27:42;20.00;48.70
44723;DHT22;30451;48.638;10.624;2022-12-18T04:30:08;20.00;48.70
44723;DHT22;30451;48.638;10.624;2022-12-18T04:32:34;19.90;48.70
44723;DHT22;30451;48.638;10.624;2022-12-18T04:35:00;19.90;48.80
44723;DHT22;30451;48.638;10.624;2022-12-18T04:37:26;19.90;48.80
44723;DHT22;30451;48.638;10.624;2022-12-18T04:39:51;19.90;48.80
44723;DHT22;30451;48.638;10.624;2022-12-18T04:42:17;19.90;48.80
44723;DHT22;30451;48.638;10.624;2022-12-18T04:44:43;19.90;48.80
44723;DHT22;30451;48.638;10.624;2022-12-18T04:47:08;19.80;48.80
44723;DHT22;30451;48.638;10.624;2022-12-18T04:49:34;19.80;48.90
44723;DHT22;30451;48.638;10.624;2022-12-18T04:51:59;19.80;48.90
44723;DHT22;30451;48.638;10.624;2022-12-18T04:54:25;19.80;48.90
44723;DHT22;30451;48.638;10.624;2022-12-18T04:56:51;19.80;49.00
44723;DHT22;30451;48.638;10.624;2022-12-18T04:59:16;19.80;49.00
44723;DHT22;30451;48.638;10.624;2022-12-18T05:01:42;19.80;49.00
44723;DHT22;30451;48.638;10.624;2022-12-18T05:04:07;19.80;49.20
44723;DHT22;30451;48.638;10.624;2022-12-18T05:06:33;19.80;49.10
44723;DHT22;30451;48.638;10.624;2022-12-18T05:08:59;19.80;49.10
44723;DHT22;30451;48.638;10.624;2022-12-18T05:11:25;19.70;49.10
44723;DHT22;30451;48.638;10.624;2022-12-18T05:13:50;19.70;49.10
44723;DHT22;30451;48.638;10.624;2022-12-18T05:16:16;19.70;49.20
44723;DHT22;30451;48.638;10.624;2022-12-18T05:18:42;19.70;49.30
44723;DHT22;30451;48.638;10.624;2022-12-18T05:21:08;19.70;49.80
44723;DHT22;30451;48.638;10.624;2022-12-18T05:23:33;19.70;49.30
44723;DHT22;30451;48.638;10.624;2022-12-18T05:26:01;19.70;49.30
44723;DHT22;30451;48.638;10.624;2022-12-18T05:28:28;19.70;49.30
44723;DHT22;30451;48.638;10.624;2022-12-18T05:30:56;19.70;49.70
44723;DHT22;30451;48.638;10.624;2022-12-18T05:33:25;19.60;49.30
44723;DHT22;30451;48.638;10.624;2022-12-18T05:35:56;19.60;49.40
44723;DHT22;30451;48.638;10.624;2022-12-18T05:38:23;19.60;49.40
44723;DHT22;30451;48.638;10.624;2022-12-18T05:40:50;19.60;49.40
44723;DHT22;30451;48.638;10.624;2022-12-18T05:43:16;19.60;49.40
44723;DHT22;30451;48.638;10.624;2022-12-18T05:45:42;19.60;49.40
44723;DHT22;30451;48.638;10.624;2022-12-18T05:48:08;19.60;49.40
44723;DHT22;30451;48.638;10.624;2022-12-18T05:50:35;19.60;49.40
44723;DHT22;30451;48.638;10.624;2022-12-18T05:53:02;19.60;49.40
44723;DHT22;30451;48.638;10.624;2022-12-18T05:55:28;19.60;49.40
44723;DHT22;30451;48.638;10.624;2022-12-18T05:57:54;19.60;49.50
44723;DHT22;30451;48.638;10.624;2022-12-18T06:00:19;19.60;49.50
44723;DHT22;30451;48.638;10.624;2022-12-18T06:02:48;19.60;49.50
44723;DHT22;30451;48.638;10.624;2022-12-18T06:05:14;19.60;49.40
44723;DHT22;30451;48.638;10.624;2022-12-18T06:07:40;19.50;49.40
44723;DHT22;30451;48.638;10.624;2022-12-18T06:10:06;19.50;49.40
44723;DHT22;30451;48.638;10.624;2022-12-18T06:12:32;19.50;49.40
44723;DHT22;30451;48.638;10.624;2022-12-18T06:14:59;19.50;49.40
44723;DHT22;30451;48.638;10.624;2022-12-18T06:17:32;19.50;49.40
44723;DHT22;30451;48.638;10.624;2022-12-18T06:19:58;19.50;49.40
44723;DHT22;30451;48.638;10.624;2022-12-18T06:22:24;19.50;49.40
44723;DHT22;30451;48.638;10.624;2022-12-18T06:24:50;19.50;49.50
44723;DHT22;30451;48.638;10.624;2022-12-18T06:27:16;19.50;49.50
44723;DHT22;30451;48.638;10.624;2022-12-18T06:29:41;19.50;49.40
44723;DHT22;30451;48.638;10.624;2022-12-18T06:32:07;19.50;49.40
44723;DHT22;30451;48.638;10.624;2022-12-18T06:34:33;19.50;49.40
44723;DHT22;30451;48.638;10.624;2022-12-18T06:36:59;19.50;49.30
44723;DHT22;30451;48.638;10.624;2022-12-18T06:39:27;19.50;49.20
44723;DHT22;30451;48.638;10.624;2022-12-18T06:41:53;19.50;49.10
44723;DHT22;30451;48.638;10.624;2022-12-18T06:44:19;19.50;49.10
44723;DHT22;30451;48.638;10.624;2022-12-18T06:46:44;19.50;49.10
44723;DHT22;30451;48.638;10.624;2022-12-18T06:49:10;19.50;49.10
44723;DHT22;30451;48.638;10.624;2022-12-18T06:51:36;19.50;49.00
44723;DHT22;30451;48.638;10.624;2022-12-18T06:54:02;19.50;49.00
44723;DHT22;30451;48.638;10.624;2022-12-18T06:56:28;19.50;49.00
44723;DHT22;30451;48.638;10.624;2022-12-18T06:58:54;19.50;49.00
44723;DHT22;30451;48.638;10.624;2022-12-18T07:01:21;19.50;48.90
44723;DHT22;30451;48.638;10.624;2022-12-18T07:03:47;19.50;48.90
44723;DHT22;30451;48.638;10.624;2022-12-18T07:06:18;19.50;49.00
44723;DHT22;30451;48.638;10.624;2022-12-18T07:08:44;19.50;49.00
44723;DHT22;30451;48.638;10.624;2022-12-18T07:11:10;19.50;49.00
44723;DHT22;30451;48.638;10.624;2022-12-18T07:13:36;19.50;49.10
44723;DHT22;30451;48.638;10.624;2022-12-18T07:18:30;19.50;49.10
44723;DHT22;30451;48.638;10.624;2022-12-18T07:20:56;19.50;49.10
44723;DHT22;30451;48.638;10.624;2022-12-18T07:23:21;19.50;49.10
44723;DHT22;30451;48.638;10.624;2022-12-18T07:25:47;19.50;49.00
44723;DHT22;30451;48.638;10.624;2022-12-18T07:28:13;19.50;49.00
44723;DHT22;30451;48.638;10.624;2022-12-18T07:30:40;19.50;49.00
44723;DHT22;30451;48.638;10.624;2022-12-18T07:33:05;19.50;49.10
44723;DHT22;30451;48.638;10.624;2022-12-18T07:35:32;19.50;49.10
44723;DHT22;30451;48.638;10.624;2022-12-18T07:37:58;19.50;49.20
44723;DHT22;30451;48.638;10.624;2022-12-18T07:40:24;19.50;49.20
44723;DHT22;30451;48.638;10.624;2022-12-18T07:42:49;19.50;49.20
44723;DHT22;30451;48.638;10.624;2022-12-18T07:45:15;19.50;49.30
44723;DHT22;30451;48.638;10.624;2022-12-18T07:47:40;19.50;49.30
44723;DHT22;30451;48.638;10.624;2022-12-18T07:50:06;19.50;49.30
44723;DHT22;30451;48.638;10.624;2022-12-18T07:52:32;19.50;49.30
44723;DHT22;30451;48.638;10.624;2022-12-18T07:54:58;19.40;49.20
44723;DHT22;30451;48.638;10.624;2022-12-18T07:57:24;19.50;49.30
44723;DHT22;30451;48.638;10.624;2022-12-18T07:59:49;19.50;49.30
44723;DHT22;30451;48.638;10.624;2022-12-18T08:02:15;19.50;49.30
44723;DHT22;30451;48.638;10.624;2022-12-18T08:04:40;19.50;49.20
44723;DHT22;30451;48.638;10.624;2022-12-18T08:07:06;19.50;49.30
44723;DHT22;30451;48.638;10.624;2022-12-18T08:09:31;19.50;49.30
44723;DHT22;30451;48.638;10.624;2022-12-18T08:11:57;19.50;49.40
44723;DHT22;30451;48.638;10.624;2022-12-18T08:14:23;19.50;49.50
44723;DHT22;30451;48.638;10.624;2022-12-18T08:16:48;19.50;49.60
44723;DHT22;30451;48.638;10.624;2022-12-18T08:19:14;19.50;49.70
44723;DHT22;30451;48.638;10.624;2022-12-18T08:21:41;19.50;49.80
44723;DHT22;30451;48.638;10.624;2022-12-18T08:24:08;19.40;49.90
44723;DHT22;30451;48.638;10.624;2022-12-18T08:26:34;19.50;50.00
44723;DHT22;30451;48.638;10.624;2022-12-18T08:29:00;19.50;50.20
44723;DHT22;30451;48.638;10.624;2022-12-18T08:31:27;19.50;50.30
44723;DHT22;30451;48.638;10.624;2022-12-18T08:33:54;19.50;50.40
44723;DHT22;30451;48.638;10.624;2022-12-18T08:36:21;19.50;50.60
44723;DHT22;30451;48.638;10.624;2022-12-18T08:38:47;19.50;50.60
44723;DHT22;30451;48.638;10.624;2022-12-18T08:41:14;19.40;50.70
44723;DHT22;30451;48.638;10.624;2022-12-18T08:43:40;19.50;50.70
44723;DHT22;30451;48.638;10.624;2022-12-18T08:46:27;19.50;50.80
44723;DHT22;30451;48.638;10.624;2022-12-18T08:48:53;19.50;50.80
44723;DHT22;30451;48.638;10.624;2022-12-18T08:51:20;19.50;50.80
44723;DHT22;30451;48.638;10.624;2022-12-18T08:53:46;19.40;50.80
44723;DHT22;30451;48.638;10.624;2022-12-18T08:56:12;19.50;50.80
44723;DHT22;30451;48.638;10.624;2022-12-18T08:58:38;19.50;50.80
44723;DHT22;30451;48.638;10.624;2022-12-18T09:01:06;19.40;50.80
44723;DHT22;30451;48.638;10.624;2022-12-18T09:03:32;19.40;50.80
44723;DHT22;30451;48.638;10.624;2022-12-18T09:05:58;19.50;50.90
44723;DHT22;30451;48.638;10.624;2022-12-18T09:08:25;19.40;50.90
44723;DHT22;30451;48.638;10.624;2022-12-18T09:10:51;19.40;50.90
44723;DHT22;30451;48.638;10.624;2022-12-18T09:13:17;19.40;50.90
44723;DHT22;30451;48.638;10.624;2022-12-18T09:15:52;19.40;50.90
44723;DHT22;30451;48.638;10.624;2022-12-18T09:18:19;19.40;50.90
44723;DHT22;30451;48.638;10.624;2022-12-18T09:20:45;19.40;50.90
44723;DHT22;30451;48.638;10.624;2022-12-18T09:23:11;19.40;50.80
44723;DHT22;30451;48.638;10.624;2022-12-18T09:25:37;19.40;50.90
44723;DHT22;30451;48.638;10.624;2022-12-18T09:28:06;19.40;50.80
44723;DHT22;30451;48.638;10.624;2022-12-18T09:30:37;19.40;50.90
44723;DHT22;30451;48.638;10.624;2022-12-18T09:33:03;19.40;51.30
44723;DHT22;30451;48.638;10.624;2022-12-18T09:35:29;19.40;50.80
44723;DHT22;30451;48.638;10.624;2022-12-18T09:37:54;19.40;50.80
44723;DHT22;30451;48.638;10.624;2022-12-18T09:40:22;19.40;50.80
44723;DHT22;30451;48.638;10.624;2022-12-18T09:42:54;19.40;50.80
44723;DHT22;30451;48.638;10.624;2022-12-18T09:45:21;19.40;50.80
44723;DHT22;30451;48.638;10.624;2022-12-18T09:47:48;19.40;50.80
44723;DHT22;30451;48.638;10.624;2022-12-18T09:50:30;19.40;50.80
44723;DHT22;30451;48.638;10.624;2022-12-18T09:53:02;19.30;50.80
44723;DHT22;30451;48.638;10.624;2022-12-18T09:55:44;19.40;50.80
44723;DHT22;30451;48.638;10.624;2022-12-18T09:58:20;19.30;50.70
44723;DHT22;30451;48.638;10.624;2022-12-18T10:00:52;19.30;51.10
44723;DHT22;30451;48.638;10.624;2022-12-18T10:03:17;19.40;50.70
44723;DHT22;30451;48.638;10.624;2022-12-18T10:11:32;19.30;50.60
44723;DHT22;30451;48.638;10.624;2022-12-18T10:17:02;19.30;50.60
44723;DHT22;30451;48.638;10.624;2022-12-18T10:19:36;19.30;50.60
44723;DHT22;30451;48.638;10.624;2022-12-18T10:27:39;19.30;50.60
44723;DHT22;30451;48.638;10.624;2022-12-18T10:30:24;19.30;50.60
44723;DHT22;30451;48.638;10.624;2022-12-18T10:32:51;19.30;50.60
44723;DHT22;30451;48.638;10.624;2022-12-18T10:35:25;19.40;50.60
44723;DHT22;30451;48.638;10.624;2022-12-18T10:43:32;19.30;50.60
44723;DHT22;30451;48.638;10.624;2022-12-18T10:48:29;19.30;50.50
44723;DHT22;30451;48.638;10.624;2022-12-18T10:50:55;19.30;50.50
44723;DHT22;30451;48.638;10.624;2022-12-18T10:53:28;19.30;50.50
44723;DHT22;30451;48.638;10.624;2022-12-18T10:55:57;19.30;50.50
44723;DHT22;30451;48.638;10.624;2022-12-18T11:01:15;19.30;50.50
44723;DHT22;30451;48.638;10.624;2022-12-18T11:06:22;19.30;50.40
44723;DHT22;30451;48.638;10.624;2022-12-18T11:09:04;19.30;50.40
44723;DHT22;30451;48.638;10.624;2022-12-18T11:11:31;19.30;50.40
44723;DHT22;30451;48.638;10.624;2022-12-18T11:14:18;19.30;50.40
44723;DHT22;30451;48.638;10.624;2022-12-18T11:16:47;19.30;50.40
44723;DHT22;30451;48.638;10.624;2022-12-18T11:21:50;19.30;50.40
44723;DHT22;30451;48.638;10.624;2022-12-18T11:26:55;19.40;51.50
44723;DHT22;30451;48.638;10.624;2022-12-18T11:29:39;19.40;51.40
44723;DHT22;30451;48.638;10.624;2022-12-18T11:34:42;19.50;51.40
44723;DHT22;30451;48.638;10.624;2022-12-18T11:37:09;19.50;51.40
44723;DHT22;30451;48.638;10.624;2022-12-18T11:39:49;19.50;51.20
44723;DHT22;30451;48.638;10.624;2022-12-18T11:42:35;19.60;51.10
44723;DHT22;30451;48.638;10.624;2022-12-18T11:45:25;19.60;51.00
44723;DHT22;30451;48.638;10.624;2022-12-18T11:53:01;19.80;50.80
44723;DHT22;30451;48.638;10.624;2022-12-18T12:01:51;19.80;50.40
44723;DHT22;30451;48.638;10.624;2022-12-18T12:10:53;19.90;51.00
44723;DHT22;30451;48.638;10.624;2022-12-18T12:13:19;19.80;50.90
44723;DHT22;30451;48.638;10.624;2022-12-18T12:15:55;19.80;50.80
44723;DHT22;30451;48.638;10.624;2022-12-18T12:24:01;19.80;50.70
44723;DHT22;30451;48.638;10.624;2022-12-18T12:32:41;19.80;50.70
44723;DHT22;30451;48.638;10.624;2022-12-18T12:40:42;19.80;50.60
44723;DHT22;30451;48.638;10.624;2022-12-18T12:43:24;19.80;50.60
44723;DHT22;30451;48.638;10.624;2022-12-18T12:51:00;19.80;50.50
44723;DHT22;30451;48.638;10.624;2022-12-18T12:53:32;19.80;50.50
44723;DHT22;30451;48.638;10.624;2022-12-18T12:56:00;19.70;50.40
44723;DHT22;30451;48.638;10.624;2022-12-18T12:58:57;19.80;50.40
44723;DHT22;30451;48.638;10.624;2022-12-18T13:04:14;19.70;50.30
44723;DHT22;30451;48.638;10.624;2022-12-18T13:07:01;19.80;50.30
44723;DHT22;30451;48.638;10.624;2022-12-18T13:09:32;19.70;50.20
44723;DHT22;30451;48.638;10.624;2022-12-18T13:12:03;19.70;50.20
44723;DHT22;30451;48.638;10.624;2022-12-18T13:14:48;19.70;50.20
44723;DHT22;30451;48.638;10.624;2022-12-18T13:17:31;19.70;50.20
44723;DHT22;30451;48.638;10.624;2022-12-18T13:20:11;19.70;50.20
44723;DHT22;30451;48.638;10.624;2022-12-18T13:22:49;19.70;50.20
44723;DHT22;30451;48.638;10.624;2022-12-18T13:25:28;19.70;50.20
44723;DHT22;30451;48.638;10.624;2022-12-18T13:46:25;19.70;50.40
44723;DHT22;30451;48.638;10.624;2022-12-18T13:49:00;19.70;50.40
44723;DHT22;30451;48.638;10.624;2022-12-18T13:51:27;19.60;50.50
44723;DHT22;30451;48.638;10.624;2022-12-18T13:54:02;19.70;50.80
44723;DHT22;30451;48.638;10.624;2022-12-18T13:56:32;19.70;50.90
44723;DHT22;30451;48.638;10.624;2022-12-18T13:59:15;19.90;50.90
44723;DHT22;30451;48.638;10.624;2022-12-18T14:01:56;20.00;50.70
44723;DHT22;30451;48.638;10.624;2022-12-18T14:04:32;20.20;50.40
44723;DHT22;30451;48.638;10.624;2022-12-18T14:07:12;20.30;50.30
44723;DHT22;30451;48.638;10.624;2022-12-18T14:10:02;20.30;50.20
44723;DHT22;30451;48.638;10.624;2022-12-18T14:12:30;20.30;50.30
44723;DHT22;30451;48.638;10.624;2022-12-18T14:15:26;20.30;50.20
44723;DHT22;30451;48.638;10.624;2022-12-18T14:17:59;20.30;50.70
44723;DHT22;30451;48.638;10.624;2022-12-18T14:20:26;20.30;50.20
44723;DHT22;30451;48.638;10.624;2022-12-18T14:22:52;20.30;50.10
44723;DHT22;30451;48.638;10.624;2022-12-18T14:25:19;20.30;50.10
44723;DHT22;30451;48.638;10.624;2022-12-18T14:27:48;20.40;50.10
44723;DHT22;30451;48.638;10.624;2022-12-18T14:35:36;20.40;50.00
44723;DHT22;30451;48.638;10.624;2022-12-18T14:38:30;20.40;50.00
44723;DHT22;30451;48.638;10.624;2022-12-18T14:41:10;20.40;50.00
44723;DHT22;30451;48.638;10.624;2022-12-18T14:43:38;20.40;50.00
44723;DHT22;30451;48.638;10.624;2022-12-18T14:46:06;20.40;50.00
44723;DHT22;30451;48.638;10.624;2022-12-18T14:48:50;20.40;50.00
44723;DHT22;30451;48.638;10.624;2022-12-18T14:51:19;20.40;50.00
44723;DHT22;30451;48.638;10.624;2022-12-18T14:54:02;20.30;49.90
44723;DHT22;30451;48.638;10.624;2022-12-18T14:56:36;20.30;49.90
44723;DHT22;30451;48.638;10.624;2022-12-18T14:59:22;20.30;50.00
44723;DHT22;30451;48.638;10.624;2022-12-18T15:02:25;20.30;50.00
44723;DHT22;30451;48.638;10.624;2022-12-18T15:05:27;20.30;50.00
44723;DHT22;30451;48.638;10.624;2022-12-18T15:07:54;20.40;50.10
44723;DHT22;30451;48.638;10.624;2022-12-18T15:10:31;20.40;50.10
44723;DHT22;30451;48.638;10.624;2022-12-18T15:25:43;20.50;50.20
44723;DHT22;30451;48.638;10.624;2022-12-18T15:36:16;20.50;50.20
44723;DHT22;30451;48.638;10.624;2022-12-18T15:38:46;20.60;50.30
44723;DHT22;30451;48.638;10.624;2022-12-18T15:41:14;20.60;50.30
44723;DHT22;30451;48.638;10.624;2022-12-18T15:43:42;20.60;50.30
44723;DHT22;30451;48.638;10.624;2022-12-18T15:46:33;20.60;50.30
44723;DHT22;30451;48.638;10.624;2022-12-18T15:48:59;20.70;50.30
44723;DHT22;30451;48.638;10.624;2022-12-18T15:51:31;20.60;50.20
44723;DHT22;30451;48.638;10.624;2022-12-18T15:53:59;20.70;50.30
44723;DHT22;30451;48.638;10.624;2022-12-18T15:56:26;20.70;50.30
44723;DHT22;30451;48.638;10.624;2022-12-18T15:59:13;20.70;50.40
44723;DHT22;30451;48.638;10.624;2022-12-18T16:01:39;20.60;50.40
44723;DHT22;30451;48.638;10.624;2022-12-18T16:04:05;20.60;50.50
44723;DHT22;30451;48.638;10.624;2022-12-18T16:06:31;20.60;50.60
44723;DHT22;30451;48.638;10.624;2022-12-18T16:08:56;20.60;50.70
44723;DHT22;30451;48.638;10.624;2022-12-18T16:11:27;20.60;50.70
44723;DHT22;30451;48.638;10.624;2022-12-18T16:14:24;20.50;50.70
44723;DHT22;30451;48.638;10.624;2022-12-18T16:16:57;20.50;50.70
44723;DHT22;30451;48.638;10.624;2022-12-18T16:19:23;20.50;50.80
44723;DHT22;30451;48.638;10.624;2022-12-18T16:21:51;20.50;50.80
44723;DHT22;30451;48.638;10.624;2022-12-18T16:24:18;20.40;50.80
44723;DHT22;30451;48.638;10.624;2022-12-18T16:26:45;20.40;50.80
44723;DHT22;30451;48.638;10.624;2022-12-18T16:29:11;20.40;50.80
44723;DHT22;30451;48.638;10.624;2022-12-18T16:31:37;20.40;50.90
44723;DHT22;30451;48.638;10.624;2022-12-18T16:34:22;20.40;50.90
44723;DHT22;30451;48.638;10.624;2022-12-18T16:36:52;20.30;50.90
44723;DHT22;30451;48.638;10.624;2022-12-18T16:39:19;20.30;50.90
44723;DHT22;30451;48.638;10.624;2022-12-18T16:41:45;20.40;51.00
44723;DHT22;30451;48.638;10.624;2022-12-18T16:44:11;20.30;51.10
44723;DHT22;30451;48.638;10.624;2022-12-18T16:46:38;20.40;51.20
44723;DHT22;30451;48.638;10.624;2022-12-18T16:49:05;20.50;51.10
44723;DHT22;30451;48.638;10.624;2022-12-18T16:51:34;20.60;51.00
44723;DHT22;30451;48.638;10.624;2022-12-18T16:54:00;20.70;50.90
44723;DHT22;30451;48.638;10.624;2022-12-18T16:56:25;20.70;50.80
44723;DHT22;30451;48.638;10.624;2022-12-18T16:58:56;20.80;50.70
44723;DHT22;30451;48.638;10.624;2022-12-18T17:01:23;20.90;50.60
44723;DHT22;30451;48.638;10.624;2022-12-18T17:03:58;21.00;50.50
44723;DHT22;30451;48.638;10.624;2022-12-18T17:06:25;21.00;50.40
44723;DHT22;30451;48.638;10.624;2022-12-18T17:09:02;21.10;50.30
44723;DHT22;30451;48.638;10.624;2022-12-18T17:11:30;21.20;50.20
44723;DHT22;30451;48.638;10.624;2022-12-18T17:13:56;21.20;50.30
44723;DHT22;30451;48.638;10.624;2022-12-18T17:16:22;21.30;50.30
44723;DHT22;30451;48.638;10.624;2022-12-18T17:18:48;21.30;50.30
44723;DHT22;30451;48.638;10.624;2022-12-18T17:21:16;21.30;50.30
44723;DHT22;30451;48.638;10.624;2022-12-18T17:23:42;21.40;50.20
44723;DHT22;30451;48.638;10.624;2022-12-18T17:26:09;21.50;50.10
44723;DHT22;30451;48.638;10.624;2022-12-18T17:28:35;21.50;50.00
44723;DHT22;30451;48.638;10.624;2022-12-18T17:31:12;21.50;49.90
44723;DHT22;30451;48.638;10.624;2022-12-18T17:33:39;21.60;49.80
44723;DHT22;30451;48.638;10.624;2022-12-18T17:36:05;21.70;49.80
44723;DHT22;30451;48.638;10.624;2022-12-18T17:38:31;21.70;49.70
44723;DHT22;30451;48.638;10.624;2022-12-18T17:41:03;21.70;49.60
44723;DHT22;30451;48.638;10.624;2022-12-18T17:43:29;21.80;49.60
44723;DHT22;30451;48.638;10.624;2022-12-18T17:45:56;21.70;49.50
44723;DHT22;30451;48.638;10.624;2022-12-18T17:48:25;21.70;49.60
44723;DHT22;30451;48.638;10.624;2022-12-18T17:50:51;21.70;49.50
44723;DHT22;30451;48.638;10.624;2022-12-18T17:53:16;21.70;49.60
44723;DHT22;30451;48.638;10.624;2022-12-18T17:55:42;21.80;49.60
44723;DHT22;30451;48.638;10.624;2022-12-18T17:58:08;21.80;49.40
44723;DHT22;30451;48.638;10.624;2022-12-18T18:00:33;21.90;49.30
44723;DHT22;30451;48.638;10.624;2022-12-18T18:02:59;21.90;49.20
44723;DHT22;30451;48.638;10.624;2022-12-18T18:05:25;21.90;49.10